sensor_id;sensor_type;location;lat;lon;timestamp;P1;durP1;ratioP1;P2;durP2;ratioP2
29934;SDS011;19905;53.370;-6.314;2023-04-03T00:01:54;5.80;;;1.60;;
29934;SDS011;19905;53.370;-6.314;2023-04-03T00:04:23;6.72;;;1.60;;
29934;SDS011;19905;53.370;-6.314;2023-04-03T00:06:52;6.38;;;1.60;;
29934;SDS011;19905;53.370;-6.314;2023-04-03T00:09:20;3.83;;;1.60;;
29934;SDS011;19905;53.370;-6.314;2023-04-03T00:11:49;5.53;;;1.60;;
29934;SDS011;19905;53.370;-6.314;2023-04-03T00:14:20;3.38;;;1.40;;
29934;SDS011;19905;53.370;-6.314;2023-04-03T00:16:48;9.77;;;2.63;;
29934;SDS011;19905;53.370;-6.314;2023-04-03T00:19:17;4.15;;;1.40;;
29934;SDS011;19905;53.370;-6.314;2023-04-03T00:21:46;3.60;;;1.48;;
29934;SDS011;19905;53.370;-6.314;2023-04-03T00:24:14;3.40;;;1.30;;
29934;SDS011;19905;53.370;-6.314;2023-04-03T00:26:43;5.05;;;1.40;;
29934;SDS011;19905;53.370;-6.314;2023-04-03T00:29:11;6.95;;;1.60;;
29934;SDS011;19905;53.370;-6.314;2023-04-03T00:31:42;5.55;;;1.40;;
29934;SDS011;19905;53.370;-6.314;2023-04-03T00:34:10;5.07;;;1.60;;
29934;SDS011;19905;53.370;-6.314;2023-04-03T00:36:39;4.65;;;1.40;;
29934;SDS011;19905;53.370;-6.314;2023-04-03T00:39:07;3.90;;;1.70;;
29934;SDS011;19905;53.370;-6.314;2023-04-03T00:41:36;4.13;;;1.60;;
29934;SDS011;19905;53.370;-6.314;2023-04-03T00:44:18;5.60;;;1.80;;
29934;SDS011;19905;53.370;-6.314;2023-04-03T00:46:50;9.00;;;2.10;;
29934;SDS011;19905;53.370;-6.314;2023-04-03T00:49:18;6.03;;;2.03;;
29934;SDS011;19905;53.370;-6.314;2023-04-03T00:51:47;9.15;;;2.47;;
29934;SDS011;19905;53.370;-6.314;2023-04-03T00:54:16;7.82;;;1.92;;
29934;SDS011;19905;53.370;-6.314;2023-04-03T00:56:45;8.52;;;2.20;;
29934;SDS011;19905;53.370;-6.314;2023-04-03T00:59:14;9.80;;;2.10;;
29934;SDS011;19905;53.370;-6.314;2023-04-03T01:01:50;7.78;;;2.13;;
29934;SDS011;19905;53.370;-6.314;2023-04-03T01:04:28;3.33;;;1.95;;
29934;SDS011;19905;53.370;-6.314;2023-04-03T01:06:59;4.55;;;1.92;;
29934;SDS011;19905;53.370;-6.314;2023-04-03T01:09:31;4.05;;;1.75;;
29934;SDS011;19905;53.370;-6.314;2023-04-03T01:12:12;8.00;;;1.88;;
29934;SDS011;19905;53.370;-6.314;2023-04-03T01:14:43;4.80;;;1.70;;
29934;SDS011;19905;53.370;-6.314;2023-04-03T01:17:26;5.10;;;1.75;;
29934;SDS011;19905;53.370;-6.314;2023-04-03T01:20:03;5.47;;;1.70;;
29934;SDS011;19905;53.370;-6.314;2023-04-03T01:22:52;6.45;;;2.00;;
29934;SDS011;19905;53.370;-6.314;2023-04-03T01:25:27;3.88;;;1.40;;
29934;SDS011;19905;53.370;-6.314;2023-04-03T01:27:55;6.70;;;1.50;;
29934;SDS011;19905;53.370;-6.314;2023-04-03T01:30:25;7.13;;;1.90;;
29934;SDS011;19905;53.370;-6.314;2023-04-03T01:33:01;6.35;;;1.75;;
29934;SDS011;19905;53.370;-6.314;2023-04-03T01:35:29;6.32;;;1.65;;
29934;SDS011;19905;53.370;-6.314;2023-04-03T01:37:58;5.72;;;2.08;;
29934;SDS011;19905;53.370;-6.314;2023-04-03T01:40:27;7.53;;;1.98;;
29934;SDS011;19905;53.370;-6.314;2023-04-03T01:42:56;3.97;;;1.50;;
29934;SDS011;19905;53.370;-6.314;2023-04-03T01:45:24;4.43;;;1.95;;
29934;SDS011;19905;53.370;-6.314;2023-04-03T01:47:53;8.10;;;2.00;;
29934;SDS011;19905;53.370;-6.314;2023-04-03T01:50:23;5.22;;;1.73;;
29934;SDS011;19905;53.370;-6.314;2023-04-03T01:52:52;3.75;;;1.67;;
29934;SDS011;19905;53.370;-6.314;2023-04-03T01:55:21;3.15;;;1.63;;
29934;SDS011;19905;53.370;-6.314;2023-04-03T01:57:50;6.68;;;1.92;;
29934;SDS011;19905;53.370;-6.314;2023-04-03T02:00:20;4.15;;;1.70;;
29934;SDS011;19905;53.370;-6.314;2023-04-03T02:02:49;5.07;;;1.90;;
29934;SDS011;19905;53.370;-6.314;2023-04-03T02:05:18;4.07;;;1.70;;
29934;SDS011;19905;53.370;-6.314;2023-04-03T02:07:48;5.45;;;1.70;;
29934;SDS011;19905;53.370;-6.314;2023-04-03T02:10:17;6.88;;;1.83;;
29934;SDS011;19905;53.370;-6.314;2023-04-03T02:12:46;6.38;;;1.60;;
29934;SDS011;19905;53.370;-6.314;2023-04-03T02:15:16;6.03;;;1.77;;
29934;SDS011;19905;53.370;-6.314;2023-04-03T02:17:45;3.58;;;1.77;;
29934;SDS011;19905;53.370;-6.314;2023-04-03T02:20:14;6.55;;;1.95;;
29934;SDS011;19905;53.370;-6.314;2023-04-03T02:22:42;6.75;;;2.10;;
29934;SDS011;19905;53.370;-6.314;2023-04-03T02:25:12;6.72;;;1.80;;
29934;SDS011;19905;53.370;-6.314;2023-04-03T02:27:41;4.95;;;1.83;;
29934;SDS011;19905;53.370;-6.314;2023-04-03T02:30:10;6.28;;;2.10;;
29934;SDS011;19905;53.370;-6.314;2023-04-03T02:32:40;8.05;;;1.88;;
29934;SDS011;19905;53.370;-6.314;2023-04-03T02:35:09;4.95;;;2.00;;
29934;SDS011;19905;53.370;-6.314;2023-04-03T02:37:38;5.40;;;1.85;;
29934;SDS011;19905;53.370;-6.314;2023-04-03T02:40:07;5.80;;;2.20;;
29934;SDS011;19905;53.370;-6.314;2023-04-03T02:42:39;6.05;;;2.00;;
29934;SDS011;19905;53.370;-6.314;2023-04-03T02:45:08;8.23;;;1.90;;
29934;SDS011;19905;53.370;-6.314;2023-04-03T02:47:37;8.55;;;2.15;;
29934;SDS011;19905;53.370;-6.314;2023-04-03T02:50:06;6.75;;;2.00;;
29934;SDS011;19905;53.370;-6.314;2023-04-03T02:52:35;6.63;;;2.20;;
29934;SDS011;19905;53.370;-6.314;2023-04-03T02:55:04;8.73;;;2.53;;
29934;SDS011;19905;53.370;-6.314;2023-04-03T02:57:33;7.38;;;2.55;;
29934;SDS011;19905;53.370;-6.314;2023-04-03T03:00:04;6.50;;;2.78;;
29934;SDS011;19905;53.370;-6.314;2023-04-03T03:02:34;5.72;;;2.55;;
29934;SDS011;19905;53.370;-6.314;2023-04-03T03:05:03;4.50;;;2.50;;
29934;SDS011;19905;53.370;-6.314;2023-04-03T03:07:32;8.65;;;2.72;;
29934;SDS011;19905;53.370;-6.314;2023-04-03T03:10:01;10.30;;;2.90;;
29934;SDS011;19905;53.370;-6.314;2023-04-03T03:12:30;6.43;;;3.08;;
29934;SDS011;19905;53.370;-6.314;2023-04-03T03:14:59;6.00;;;2.80;;
29934;SDS011;19905;53.370;-6.314;2023-04-03T03:17:29;6.47;;;2.60;;
29934;SDS011;19905;53.370;-6.314;2023-04-03T03:19:58;6.78;;;2.60;;
29934;SDS011;19905;53.370;-6.314;2023-04-03T03:22:27;11.27;;;3.00;;
29934;SDS011;19905;53.370;-6.314;2023-04-03T03:24:58;13.50;;;3.28;;
29934;SDS011;19905;53.370;-6.314;2023-04-03T03:27:27;10.10;;;3.30;;
29934;SDS011;19905;53.370;-6.314;2023-04-03T03:29:56;6.60;;;3.00;;
29934;SDS011;19905;53.370;-6.314;2023-04-03T03:32:24;10.73;;;3.22;;
29934;SDS011;19905;53.370;-6.314;2023-04-03T03:34:58;7.72;;;2.83;;
29934;SDS011;19905;53.370;-6.314;2023-04-03T03:37:26;8.35;;;3.22;;
29934;SDS011;19905;53.370;-6.314;2023-04-03T03:39:55;8.32;;;2.67;;
29934;SDS011;19905;53.370;-6.314;2023-04-03T03:42:24;9.75;;;3.42;;
29934;SDS011;19905;53.370;-6.314;2023-04-03T03:44:52;5.30;;;2.80;;
29934;SDS011;19905;53.370;-6.314;2023-04-03T03:47:21;12.10;;;3.45;;
29934;SDS011;19905;53.370;-6.314;2023-04-03T03:49:49;9.38;;;3.22;;
29934;SDS011;19905;53.370;-6.314;2023-04-03T03:52:20;10.20;;;3.10;;
29934;SDS011;19905;53.370;-6.314;2023-04-03T03:54:49;8.80;;;3.22;;
29934;SDS011;19905;53.370;-6.314;2023-04-03T03:57:18;8.48;;;3.58;;
29934;SDS011;19905;53.370;-6.314;2023-04-03T03:59:47;7.05;;;3.95;;
29934;SDS011;19905;53.370;-6.314;2023-04-03T04:02:17;7.05;;;3.78;;
29934;SDS011;19905;53.370;-6.314;2023-04-03T04:04:46;7.30;;;3.55;;
29934;SDS011;19905;53.370;-6.314;2023-04-03T04:07:14;8.35;;;3.90;;
29934;SDS011;19905;53.370;-6.314;2023-04-03T04:09:44;9.98;;;3.83;;
29934;SDS011;19905;53.370;-6.314;2023-04-03T04:12:13;9.68;;;3.85;;
29934;SDS011;19905;53.370;-6.314;2023-04-03T04:14:42;9.07;;;3.83;;
29934;SDS011;19905;53.370;-6.314;2023-04-03T04:17:13;10.70;;;4.40;;
29934;SDS011;19905;53.370;-6.314;2023-04-03T04:19:41;9.90;;;4.10;;
29934;SDS011;19905;53.370;-6.314;2023-04-03T04:22:10;10.15;;;4.82;;
29934;SDS011;19905;53.370;-6.314;2023-04-03T04:24:39;13.18;;;4.70;;
29934;SDS011;19905;53.370;-6.314;2023-04-03T04:27:09;8.35;;;4.78;;
29934;SDS011;19905;53.370;-6.314;2023-04-03T04:29:37;8.63;;;4.55;;
29934;SDS011;19905;53.370;-6.314;2023-04-03T04:32:06;9.95;;;4.97;;
29934;SDS011;19905;53.370;-6.314;2023-04-03T04:34:35;12.00;;;5.07;;
29934;SDS011;19905;53.370;-6.314;2023-04-03T04:37:04;8.18;;;5.68;;
29934;SDS011;19905;53.370;-6.314;2023-04-03T04:39:33;10.80;;;4.72;;
29934;SDS011;19905;53.370;-6.314;2023-04-03T04:42:02;11.32;;;5.13;;
29934;SDS011;19905;53.370;-6.314;2023-04-03T04:44:32;14.00;;;5.63;;
29934;SDS011;19905;53.370;-6.314;2023-04-03T04:47:01;12.02;;;5.70;;
29934;SDS011;19905;53.370;-6.314;2023-04-03T04:49:29;12.98;;;5.90;;
29934;SDS011;19905;53.370;-6.314;2023-04-03T04:51:58;11.98;;;5.53;;
29934;SDS011;19905;53.370;-6.314;2023-04-03T04:54:27;9.90;;;5.20;;
29934;SDS011;19905;53.370;-6.314;2023-04-03T04:56:55;11.02;;;5.88;;
29934;SDS011;19905;53.370;-6.314;2023-04-03T04:59:24;12.38;;;5.72;;
29934;SDS011;19905;53.370;-6.314;2023-04-03T05:01:54;11.75;;;5.70;;
29934;SDS011;19905;53.370;-6.314;2023-04-03T05:04:23;11.15;;;5.57;;
29934;SDS011;19905;53.370;-6.314;2023-04-03T05:06:51;12.77;;;6.40;;
29934;SDS011;19905;53.370;-6.314;2023-04-03T05:09:20;10.23;;;6.00;;
29934;SDS011;19905;53.370;-6.314;2023-04-03T05:11:49;10.35;;;6.50;;
29934;SDS011;19905;53.370;-6.314;2023-04-03T05:14:17;12.23;;;5.78;;
29934;SDS011;19905;53.370;-6.314;2023-04-03T05:16:46;10.98;;;5.78;;
29934;SDS011;19905;53.370;-6.314;2023-04-03T05:19:19;11.73;;;5.80;;
29934;SDS011;19905;53.370;-6.314;2023-04-03T05:21:48;8.90;;;5.38;;
29934;SDS011;19905;53.370;-6.314;2023-04-03T05:24:17;11.50;;;5.57;;
29934;SDS011;19905;53.370;-6.314;2023-04-03T05:26:45;11.65;;;5.97;;
29934;SDS011;19905;53.370;-6.314;2023-04-03T05:29:14;9.65;;;5.65;;
29934;SDS011;19905;53.370;-6.314;2023-04-03T05:31:42;12.93;;;5.68;;
29934;SDS011;19905;53.370;-6.314;2023-04-03T05:34:11;11.38;;;5.68;;
29934;SDS011;19905;53.370;-6.314;2023-04-03T05:36:41;15.02;;;5.53;;
29934;SDS011;19905;53.370;-6.314;2023-04-03T05:39:10;13.10;;;5.25;;
29934;SDS011;19905;53.370;-6.314;2023-04-03T05:41:39;12.40;;;5.28;;
29934;SDS011;19905;53.370;-6.314;2023-04-03T05:44:07;12.60;;;6.10;;
29934;SDS011;19905;53.370;-6.314;2023-04-03T05:46:36;11.95;;;5.75;;
29934;SDS011;19905;53.370;-6.314;2023-04-03T05:49:05;15.88;;;5.63;;
29934;SDS011;19905;53.370;-6.314;2023-04-03T05:51:34;15.30;;;5.88;;
29934;SDS011;19905;53.370;-6.314;2023-04-03T05:54:09;14.98;;;6.10;;
29934;SDS011;19905;53.370;-6.314;2023-04-03T05:56:44;14.20;;;5.88;;
29934;SDS011;19905;53.370;-6.314;2023-04-03T05:59:13;18.70;;;6.38;;
29934;SDS011;19905;53.370;-6.314;2023-04-03T06:01:45;13.43;;;6.15;;
29934;SDS011;19905;53.370;-6.314;2023-04-03T06:04:13;10.57;;;5.40;;
29934;SDS011;19905;53.370;-6.314;2023-04-03T06:06:43;11.65;;;5.90;;
29934;SDS011;19905;53.370;-6.314;2023-04-03T06:09:18;15.90;;;5.90;;
29934;SDS011;19905;53.370;-6.314;2023-04-03T06:11:48;13.13;;;5.60;;
29934;SDS011;19905;53.370;-6.314;2023-04-03T06:14:17;13.07;;;5.85;;
29934;SDS011;19905;53.370;-6.314;2023-04-03T06:16:45;12.63;;;5.95;;
29934;SDS011;19905;53.370;-6.314;2023-04-03T06:19:15;15.02;;;6.68;;
29934;SDS011;19905;53.370;-6.314;2023-04-03T06:21:43;13.68;;;6.03;;
29934;SDS011;19905;53.370;-6.314;2023-04-03T06:24:14;18.48;;;7.38;;
29934;SDS011;19905;53.370;-6.314;2023-04-03T06:26:45;18.13;;;8.10;;
29934;SDS011;19905;53.370;-6.314;2023-04-03T06:29:14;21.15;;;8.50;;
29934;SDS011;19905;53.370;-6.314;2023-04-03T06:31:43;24.35;;;8.88;;
29934;SDS011;19905;53.370;-6.314;2023-04-03T06:34:11;22.70;;;8.57;;
29934;SDS011;19905;53.370;-6.314;2023-04-03T06:36:40;24.65;;;9.32;;
29934;SDS011;19905;53.370;-6.314;2023-04-03T06:39:10;25.25;;;8.65;;
29934;SDS011;19905;53.370;-6.314;2023-04-03T06:41:41;21.35;;;9.02;;
29934;SDS011;19905;53.370;-6.314;2023-04-03T06:44:12;33.92;;;10.07;;
29934;SDS011;19905;53.370;-6.314;2023-04-03T06:46:43;25.55;;;9.35;;
29934;SDS011;19905;53.370;-6.314;2023-04-03T06:49:13;19.48;;;9.50;;
29934;SDS011;19905;53.370;-6.314;2023-04-03T06:51:42;24.80;;;9.23;;
29934;SDS011;19905;53.370;-6.314;2023-04-03T06:54:11;22.15;;;8.57;;
29934;SDS011;19905;53.370;-6.314;2023-04-03T06:56:41;23.88;;;8.43;;
29934;SDS011;19905;53.370;-6.314;2023-04-03T06:59:11;19.10;;;8.43;;
29934;SDS011;19905;53.370;-6.314;2023-04-03T07:01:42;22.50;;;8.00;;
29934;SDS011;19905;53.370;-6.314;2023-04-03T07:04:11;25.20;;;8.20;;
29934;SDS011;19905;53.370;-6.314;2023-04-03T07:06:39;18.52;;;7.20;;
29934;SDS011;19905;53.370;-6.314;2023-04-03T07:09:08;25.02;;;7.32;;
29934;SDS011;19905;53.370;-6.314;2023-04-03T07:11:37;25.15;;;7.18;;
29934;SDS011;19905;53.370;-6.314;2023-04-03T07:14:06;18.05;;;6.60;;
29934;SDS011;19905;53.370;-6.314;2023-04-03T07:16:37;22.38;;;6.57;;
29934;SDS011;19905;53.370;-6.314;2023-04-03T07:19:08;23.25;;;6.47;;
29934;SDS011;19905;53.370;-6.314;2023-04-03T07:21:37;19.98;;;6.28;;
29934;SDS011;19905;53.370;-6.314;2023-04-03T07:24:08;22.35;;;6.18;;
29934;SDS011;19905;53.370;-6.314;2023-04-03T07:26:42;22.08;;;6.35;;
29934;SDS011;19905;53.370;-6.314;2023-04-03T07:29:12;16.52;;;5.55;;
29934;SDS011;19905;53.370;-6.314;2023-04-03T07:31:42;19.38;;;6.00;;
29934;SDS011;19905;53.370;-6.314;2023-04-03T07:34:11;22.15;;;6.03;;
29934;SDS011;19905;53.370;-6.314;2023-04-03T07:36:40;18.48;;;6.00;;
29934;SDS011;19905;53.370;-6.314;2023-04-03T07:39:09;16.65;;;6.07;;
29934;SDS011;19905;53.370;-6.314;2023-04-03T07:41:37;20.88;;;6.28;;
29934;SDS011;19905;53.370;-6.314;2023-04-03T07:44:06;21.73;;;6.35;;
29934;SDS011;19905;53.370;-6.314;2023-04-03T07:46:36;18.33;;;6.05;;
29934;SDS011;19905;53.370;-6.314;2023-04-03T07:49:07;15.27;;;5.72;;
29934;SDS011;19905;53.370;-6.314;2023-04-03T07:51:35;20.25;;;5.97;;
29934;SDS011;19905;53.370;-6.314;2023-04-03T07:54:04;16.90;;;5.53;;
29934;SDS011;19905;53.370;-6.314;2023-04-03T07:56:33;16.98;;;5.90;;
29934;SDS011;19905;53.370;-6.314;2023-04-03T07:59:01;18.05;;;5.72;;
29934;SDS011;19905;53.370;-6.314;2023-04-03T08:01:30;16.38;;;6.00;;
29934;SDS011;19905;53.370;-6.314;2023-04-03T08:04:00;22.13;;;6.30;;
29934;SDS011;19905;53.370;-6.314;2023-04-03T08:06:32;20.20;;;5.93;;
29934;SDS011;19905;53.370;-6.314;2023-04-03T08:09:13;20.05;;;5.25;;
29934;SDS011;19905;53.370;-6.314;2023-04-03T08:11:42;20.85;;;5.68;;
29934;SDS011;19905;53.370;-6.314;2023-04-03T08:14:11;20.55;;;5.38;;
29934;SDS011;19905;53.370;-6.314;2023-04-03T08:16:45;22.88;;;5.60;;
29934;SDS011;19905;53.370;-6.314;2023-04-03T08:19:15;19.35;;;5.32;;
29934;SDS011;19905;53.370;-6.314;2023-04-03T08:21:54;16.40;;;5.32;;
29934;SDS011;19905;53.370;-6.314;2023-04-03T08:24:23;17.52;;;4.57;;
29934;SDS011;19905;53.370;-6.314;2023-04-03T08:26:52;17.65;;;4.63;;
29934;SDS011;19905;53.370;-6.314;2023-04-03T08:29:20;16.15;;;4.43;;
29934;SDS011;19905;53.370;-6.314;2023-04-03T08:31:49;16.45;;;4.18;;
29934;SDS011;19905;53.370;-6.314;2023-04-03T08:34:18;19.67;;;5.18;;
29934;SDS011;19905;53.370;-6.314;2023-04-03T08:36:48;16.52;;;4.45;;
29934;SDS011;19905;53.370;-6.314;2023-04-03T08:39:18;18.50;;;4.75;;
29934;SDS011;19905;53.370;-6.314;2023-04-03T08:41:47;15.77;;;4.90;;
29934;SDS011;19905;53.370;-6.314;2023-04-03T08:44:17;9.73;;;4.18;;
29934;SDS011;19905;53.370;-6.314;2023-04-03T08:47:01;21.08;;;4.90;;
29934;SDS011;19905;53.370;-6.314;2023-04-03T08:49:39;19.33;;;4.82;;
29934;SDS011;19905;53.370;-6.314;2023-04-03T08:52:15;16.15;;;4.95;;
29934;SDS011;19905;53.370;-6.314;2023-04-03T08:54:50;18.45;;;5.00;;
29934;SDS011;19905;53.370;-6.314;2023-04-03T08:57:26;18.52;;;5.05;;
29934;SDS011;19905;53.370;-6.314;2023-04-03T08:59:59;16.95;;;5.03;;
29934;SDS011;19905;53.370;-6.314;2023-04-03T09:02:32;14.80;;;4.72;;
29934;SDS011;19905;53.370;-6.314;2023-04-03T09:05:09;14.65;;;5.00;;
29934;SDS011;19905;53.370;-6.314;2023-04-03T09:07:42;14.73;;;5.05;;
29934;SDS011;19905;53.370;-6.314;2023-04-03T09:10:18;15.88;;;4.97;;
29934;SDS011;19905;53.370;-6.314;2023-04-03T09:12:53;17.23;;;4.80;;
29934;SDS011;19905;53.370;-6.314;2023-04-03T09:15:27;21.10;;;5.03;;
29934;SDS011;19905;53.370;-6.314;2023-04-03T09:18:05;19.65;;;4.65;;
29934;SDS011;19905;53.370;-6.314;2023-04-03T09:20:43;15.10;;;4.70;;
29934;SDS011;19905;53.370;-6.314;2023-04-03T09:23:19;12.48;;;4.13;;
29934;SDS011;19905;53.370;-6.314;2023-04-03T09:25:56;17.10;;;4.60;;
29934;SDS011;19905;53.370;-6.314;2023-04-03T09:28:31;18.40;;;4.80;;
29934;SDS011;19905;53.370;-6.314;2023-04-03T09:31:20;16.25;;;4.40;;
29934;SDS011;19905;53.370;-6.314;2023-04-03T09:33:52;18.02;;;4.90;;
29934;SDS011;19905;53.370;-6.314;2023-04-03T09:39:12;15.80;;;4.10;;
29934;SDS011;19905;53.370;-6.314;2023-04-03T09:41:54;18.88;;;4.10;;
29934;SDS011;19905;53.370;-6.314;2023-04-03T09:44:29;15.73;;;4.55;;
29934;SDS011;19905;53.370;-6.314;2023-04-03T09:47:00;17.58;;;4.13;;
29934;SDS011;19905;53.370;-6.314;2023-04-03T09:49:47;16.02;;;4.45;;
29934;SDS011;19905;53.370;-6.314;2023-04-03T09:52:19;19.92;;;4.35;;
29934;SDS011;19905;53.370;-6.314;2023-04-03T09:54:51;39.30;;;5.07;;
29934;SDS011;19905;53.370;-6.314;2023-04-03T09:57:21;18.70;;;4.10;;
29934;SDS011;19905;53.370;-6.314;2023-04-03T09:59:56;15.68;;;4.47;;
29934;SDS011;19905;53.370;-6.314;2023-04-03T10:02:30;21.42;;;4.43;;
29934;SDS011;19905;53.370;-6.314;2023-04-03T10:05:03;19.02;;;4.07;;
29934;SDS011;19905;53.370;-6.314;2023-04-03T10:07:36;19.50;;;4.22;;
29934;SDS011;19905;53.370;-6.314;2023-04-03T10:10:16;15.40;;;4.60;;
29934;SDS011;19905;53.370;-6.314;2023-04-03T10:12:48;18.13;;;4.63;;
29934;SDS011;19905;53.370;-6.314;2023-04-03T10:15:17;21.15;;;4.95;;
29934;SDS011;19905;53.370;-6.314;2023-04-03T10:17:49;16.33;;;5.13;;
29934;SDS011;19905;53.370;-6.314;2023-04-03T10:20:26;14.38;;;4.60;;
29934;SDS011;19905;53.370;-6.314;2023-04-03T10:23:03;17.15;;;4.82;;
29934;SDS011;19905;53.370;-6.314;2023-04-03T10:25:45;17.48;;;4.57;;
29934;SDS011;19905;53.370;-6.314;2023-04-03T10:28:25;20.63;;;4.93;;
29934;SDS011;19905;53.370;-6.314;2023-04-03T10:31:01;18.65;;;4.53;;
29934;SDS011;19905;53.370;-6.314;2023-04-03T10:33:50;21.60;;;4.65;;
29934;SDS011;19905;53.370;-6.314;2023-04-03T10:36:34;17.90;;;4.65;;
29934;SDS011;19905;53.370;-6.314;2023-04-03T10:39:14;20.73;;;4.60;;
29934;SDS011;19905;53.370;-6.314;2023-04-03T10:41:52;23.80;;;5.05;;
29934;SDS011;19905;53.370;-6.314;2023-04-03T10:44:50;14.05;;;4.10;;
29934;SDS011;19905;53.370;-6.314;2023-04-03T10:47:30;21.60;;;5.10;;
29934;SDS011;19905;53.370;-6.314;2023-04-03T10:50:15;25.77;;;4.90;;
29934;SDS011;19905;53.370;-6.314;2023-04-03T10:52:56;23.88;;;5.05;;
29934;SDS011;19905;53.370;-6.314;2023-04-03T10:55:33;23.48;;;5.07;;
29934;SDS011;19905;53.370;-6.314;2023-04-03T10:58:07;18.40;;;4.35;;
29934;SDS011;19905;53.370;-6.314;2023-04-03T11:00:48;20.88;;;4.30;;
29934;SDS011;19905;53.370;-6.314;2023-04-03T11:03:24;20.33;;;4.65;;
29934;SDS011;19905;53.370;-6.314;2023-04-03T11:06:00;18.27;;;4.63;;
29934;SDS011;19905;53.370;-6.314;2023-04-03T11:08:34;15.10;;;4.07;;
29934;SDS011;19905;53.370;-6.314;2023-04-03T11:11:09;18.35;;;4.50;;
29934;SDS011;19905;53.370;-6.314;2023-04-03T11:13:43;19.52;;;4.47;;
29934;SDS011;19905;53.370;-6.314;2023-04-03T11:16:24;20.48;;;4.28;;
29934;SDS011;19905;53.370;-6.314;2023-04-03T11:18:58;20.05;;;4.88;;
29934;SDS011;19905;53.370;-6.314;2023-04-03T11:21:33;21.23;;;4.60;;
29934;SDS011;19905;53.370;-6.314;2023-04-03T11:24:09;21.67;;;5.13;;
29934;SDS011;19905;53.370;-6.314;2023-04-03T11:26:44;22.20;;;5.00;;
29934;SDS011;19905;53.370;-6.314;2023-04-03T11:29:13;25.27;;;5.60;;
29934;SDS011;19905;53.370;-6.314;2023-04-03T11:32:09;22.75;;;4.68;;
29934;SDS011;19905;53.370;-6.314;2023-04-03T11:34:53;24.75;;;4.97;;
29934;SDS011;19905;53.370;-6.314;2023-04-03T11:37:28;28.55;;;5.07;;
29934;SDS011;19905;53.370;-6.314;2023-04-03T11:40:03;18.98;;;4.60;;
29934;SDS011;19905;53.370;-6.314;2023-04-03T11:42:36;23.13;;;4.97;;
29934;SDS011;19905;53.370;-6.314;2023-04-03T11:45:16;20.50;;;5.13;;
29934;SDS011;19905;53.370;-6.314;2023-04-03T12:03:32;21.75;;;4.35;;
29934;SDS011;19905;53.370;-6.314;2023-04-03T12:06:48;19.75;;;5.00;;
29934;SDS011;19905;53.370;-6.314;2023-04-03T12:09:25;24.33;;;5.00;;
29934;SDS011;19905;53.370;-6.314;2023-04-03T12:12:22;27.73;;;5.25;;
29934;SDS011;19905;53.370;-6.314;2023-04-03T12:15:12;20.05;;;4.80;;
29934;SDS011;19905;53.370;-6.314;2023-04-03T12:17:47;20.55;;;4.88;;
29934;SDS011;19905;53.370;-6.314;2023-04-03T12:23:25;21.63;;;4.53;;
29934;SDS011;19905;53.370;-6.314;2023-04-03T12:25:59;21.25;;;4.53;;
29934;SDS011;19905;53.370;-6.314;2023-04-03T12:28:37;20.55;;;4.30;;
29934;SDS011;19905;53.370;-6.314;2023-04-03T12:31:08;24.92;;;4.53;;
29934;SDS011;19905;53.370;-6.314;2023-04-03T12:33:46;18.73;;;4.20;;
29934;SDS011;19905;53.370;-6.314;2023-04-03T12:36:32;19.35;;;4.40;;
29934;SDS011;19905;53.370;-6.314;2023-04-03T12:39:18;19.20;;;4.57;;
29934;SDS011;19905;53.370;-6.314;2023-04-03T12:42:05;19.67;;;4.50;;
29934;SDS011;19905;53.370;-6.314;2023-04-03T12:44:47;23.08;;;4.72;;
29934;SDS011;19905;53.370;-6.314;2023-04-03T12:47:26;23.55;;;4.80;;
29934;SDS011;19905;53.370;-6.314;2023-04-03T12:50:00;26.15;;;5.78;;
29934;SDS011;19905;53.370;-6.314;2023-04-03T12:52:33;18.75;;;4.88;;
29934;SDS011;19905;53.370;-6.314;2023-04-03T12:55:13;21.77;;;4.82;;
29934;SDS011;19905;53.370;-6.314;2023-04-03T12:57:44;18.23;;;4.75;;
29934;SDS011;19905;53.370;-6.314;2023-04-03T13:00:27;20.30;;;4.40;;
29934;SDS011;19905;53.370;-6.314;2023-04-03T13:03:01;23.73;;;4.82;;
29934;SDS011;19905;53.370;-6.314;2023-04-03T13:05:32;22.83;;;4.78;;
29934;SDS011;19905;53.370;-6.314;2023-04-03T13:08:04;18.63;;;4.57;;
29934;SDS011;19905;53.370;-6.314;2023-04-03T13:10:44;28.83;;;5.43;;
29934;SDS011;19905;53.370;-6.314;2023-04-03T13:13:18;26.40;;;5.47;;
29934;SDS011;19905;53.370;-6.314;2023-04-03T13:15:47;23.95;;;5.10;;
29934;SDS011;19905;53.370;-6.314;2023-04-03T13:18:26;25.80;;;5.25;;
29934;SDS011;19905;53.370;-6.314;2023-04-03T13:21:00;30.83;;;5.43;;
29934;SDS011;19905;53.370;-6.314;2023-04-03T13:23:33;30.10;;;5.40;;
29934;SDS011;19905;53.370;-6.314;2023-04-03T13:26:05;27.80;;;5.80;;
29934;SDS011;19905;53.370;-6.314;2023-04-03T13:28:35;22.63;;;5.20;;
29934;SDS011;19905;53.370;-6.314;2023-04-03T13:31:08;28.42;;;5.72;;
29934;SDS011;19905;53.370;-6.314;2023-04-03T13:33:52;28.02;;;6.38;;
29934;SDS011;19905;53.370;-6.314;2023-04-03T13:36:26;24.15;;;5.30;;
29934;SDS011;19905;53.370;-6.314;2023-04-03T13:38:58;28.15;;;5.20;;
29934;SDS011;19905;53.370;-6.314;2023-04-03T13:41:31;27.80;;;5.57;;
29934;SDS011;19905;53.370;-6.314;2023-04-03T13:44:26;31.52;;;5.55;;
29934;SDS011;19905;53.370;-6.314;2023-04-03T13:46:59;26.08;;;5.35;;
29934;SDS011;19905;53.370;-6.314;2023-04-03T13:49:31;27.90;;;5.10;;
29934;SDS011;19905;53.370;-6.314;2023-04-03T13:52:01;28.48;;;4.97;;
29934;SDS011;19905;53.370;-6.314;2023-04-03T13:54:35;34.53;;;6.10;;
29934;SDS011;19905;53.370;-6.314;2023-04-03T13:57:12;24.10;;;5.63;;
29934;SDS011;19905;53.370;-6.314;2023-04-03T13:59:43;20.50;;;4.57;;
29934;SDS011;19905;53.370;-6.314;2023-04-03T14:02:14;24.05;;;4.70;;
29934;SDS011;19905;53.370;-6.314;2023-04-03T14:04:47;17.63;;;4.43;;
29934;SDS011;19905;53.370;-6.314;2023-04-03T14:07:19;23.08;;;4.13;;
29934;SDS011;19905;53.370;-6.314;2023-04-03T14:09:48;21.45;;;4.00;;
29934;SDS011;19905;53.370;-6.314;2023-04-03T14:12:21;20.17;;;4.35;;
29934;SDS011;19905;53.370;-6.314;2023-04-03T14:14:58;13.93;;;3.83;;
29934;SDS011;19905;53.370;-6.314;2023-04-03T14:17:28;18.25;;;3.97;;
29934;SDS011;19905;53.370;-6.314;2023-04-03T14:19:58;18.77;;;3.60;;
29934;SDS011;19905;53.370;-6.314;2023-04-03T14:22:28;20.45;;;4.07;;
29934;SDS011;19905;53.370;-6.314;2023-04-03T14:24:59;17.33;;;3.70;;
29934;SDS011;19905;53.370;-6.314;2023-04-03T14:27:33;13.95;;;3.30;;
29934;SDS011;19905;53.370;-6.314;2023-04-03T14:30:05;15.45;;;3.25;;
29934;SDS011;19905;53.370;-6.314;2023-04-03T14:32:36;14.05;;;3.60;;
29934;SDS011;19905;53.370;-6.314;2023-04-03T14:35:05;17.90;;;3.30;;
29934;SDS011;19905;53.370;-6.314;2023-04-03T14:37:34;12.77;;;3.15;;
29934;SDS011;19905;53.370;-6.314;2023-04-03T14:40:03;11.80;;;3.30;;
29934;SDS011;19905;53.370;-6.314;2023-04-03T14:42:35;15.07;;;3.55;;
29934;SDS011;19905;53.370;-6.314;2023-04-03T14:45:06;15.70;;;3.22;;
29934;SDS011;19905;53.370;-6.314;2023-04-03T14:47:39;15.30;;;3.38;;
29934;SDS011;19905;53.370;-6.314;2023-04-03T14:50:12;16.25;;;3.22;;
29934;SDS011;19905;53.370;-6.314;2023-04-03T14:52:45;14.60;;;3.10;;
29934;SDS011;19905;53.370;-6.314;2023-04-03T14:55:15;14.90;;;3.22;;
29934;SDS011;19905;53.370;-6.314;2023-04-03T14:57:48;15.75;;;3.35;;
29934;SDS011;19905;53.370;-6.314;2023-04-03T15:00:17;15.20;;;3.58;;
29934;SDS011;19905;53.370;-6.314;2023-04-03T15:02:47;16.08;;;3.33;;
29934;SDS011;19905;53.370;-6.314;2023-04-03T15:05:16;12.93;;;3.30;;
29934;SDS011;19905;53.370;-6.314;2023-04-03T15:07:47;16.98;;;3.00;;
29934;SDS011;19905;53.370;-6.314;2023-04-03T15:10:19;11.60;;;3.15;;
29934;SDS011;19905;53.370;-6.314;2023-04-03T15:12:52;14.25;;;3.33;;
29934;SDS011;19905;53.370;-6.314;2023-04-03T15:15:21;13.95;;;3.20;;
29934;SDS011;19905;53.370;-6.314;2023-04-03T15:17:52;11.95;;;2.95;;